sensor_id;sensor_type;location;lat;lon;timestamp;P1;durP1;ratioP1;P2;durP2;ratioP2
36213;SDS011;37652;50.400;30.628;2022-07-19T00:01:51;2.60;;;1.13;;
36213;SDS011;37652;50.400;30.628;2022-07-19T00:03:52;2.47;;;1.33;;
36213;SDS011;37652;50.400;30.628;2022-07-19T00:05:52;2.13;;;1.02;;
36213;SDS011;37652;50.400;30.628;2022-07-19T00:07:53;1.10;;;0.88;;
36213;SDS011;37652;50.400;30.628;2022-07-19T00:09:54;1.58;;;0.90;;
36213;SDS011;37652;50.400;30.628;2022-07-19T00:11:55;1.38;;;0.93;;
36213;SDS011;37652;50.400;30.628;2022-07-19T00:15:56;2.67;;;1.40;;
36213;SDS011;37652;50.400;30.628;2022-07-19T00:17:57;2.08;;;1.05;;
36213;SDS011;37652;50.400;30.628;2022-07-19T00:19:58;4.10;;;0.85;;
36213;SDS011;37652;50.400;30.628;2022-07-19T00:21:58;2.00;;;1.30;;
36213;SDS011;37652;50.400;30.628;2022-07-19T00:23:59;1.85;;;1.00;;
36213;SDS011;37652;50.400;30.628;2022-07-19T00:26:01;2.75;;;1.30;;
36213;SDS011;37652;50.400;30.628;2022-07-19T00:28:02;1.10;;;1.00;;
36213;SDS011;37652;50.400;30.628;2022-07-19T00:30:04;1.40;;;1.17;;
36213;SDS011;37652;50.400;30.628;2022-07-19T00:32:06;2.05;;;1.27;;
36213;SDS011;37652;50.400;30.628;2022-07-19T00:34:07;1.25;;;1.15;;
36213;SDS011;37652;50.400;30.628;2022-07-19T00:36:07;1.38;;;1.00;;
36213;SDS011;37652;50.400;30.628;2022-07-19T00:38:09;1.85;;;1.40;;
36213;SDS011;37652;50.400;30.628;2022-07-19T00:40:11;1.88;;;1.02;;
36213;SDS011;37652;50.400;30.628;2022-07-19T00:44:14;1.65;;;1.30;;
36213;SDS011;37652;50.400;30.628;2022-07-19T00:46:16;2.60;;;1.30;;
36213;SDS011;37652;50.400;30.628;2022-07-19T00:48:19;2.88;;;1.10;;
36213;SDS011;37652;50.400;30.628;2022-07-19T00:50:20;1.17;;;1.08;;
36213;SDS011;37652;50.400;30.628;2022-07-19T00:52:21;1.95;;;1.10;;
36213;SDS011;37652;50.400;30.628;2022-07-19T00:54:24;1.42;;;1.10;;
36213;SDS011;37652;50.400;30.628;2022-07-19T00:56:27;1.55;;;1.00;;
36213;SDS011;37652;50.400;30.628;2022-07-19T00:58:29;1.40;;;1.20;;
36213;SDS011;37652;50.400;30.628;2022-07-19T01:00:32;4.22;;;1.52;;
36213;SDS011;37652;50.400;30.628;2022-07-19T01:02:34;1.23;;;1.10;;
36213;SDS011;37652;50.400;30.628;2022-07-19T01:04:35;2.22;;;1.42;;
36213;SDS011;37652;50.400;30.628;2022-07-19T01:06:36;4.15;;;1.70;;
36213;SDS011;37652;50.400;30.628;2022-07-19T01:10:38;3.87;;;1.57;;
36213;SDS011;37652;50.400;30.628;2022-07-19T01:12:38;4.45;;;1.73;;
36213;SDS011;37652;50.400;30.628;2022-07-19T01:14:40;1.58;;;1.20;;
36213;SDS011;37652;50.400;30.628;2022-07-19T01:16:44;1.73;;;1.38;;
36213;SDS011;37652;50.400;30.628;2022-07-19T01:18:46;2.40;;;1.55;;
36213;SDS011;37652;50.400;30.628;2022-07-19T01:20:47;5.28;;;2.05;;
36213;SDS011;37652;50.400;30.628;2022-07-19T01:22:47;3.45;;;1.90;;
36213;SDS011;37652;50.400;30.628;2022-07-19T01:24:48;2.30;;;1.73;;
36213;SDS011;37652;50.400;30.628;2022-07-19T01:26:49;5.15;;;1.65;;
36213;SDS011;37652;50.400;30.628;2022-07-19T01:28:49;1.33;;;1.20;;
36213;SDS011;37652;50.400;30.628;2022-07-19T01:30:50;1.30;;;1.20;;
36213;SDS011;37652;50.400;30.628;2022-07-19T01:32:51;1.85;;;1.48;;
36213;SDS011;37652;50.400;30.628;2022-07-19T01:34:53;1.60;;;1.23;;
36213;SDS011;37652;50.400;30.628;2022-07-19T01:36:54;1.45;;;1.33;;
36213;SDS011;37652;50.400;30.628;2022-07-19T01:38:54;1.67;;;1.17;;
36213;SDS011;37652;50.400;30.628;2022-07-19T01:40:57;3.40;;;1.27;;
36213;SDS011;37652;50.400;30.628;2022-07-19T01:42:58;3.28;;;1.20;;
36213;SDS011;37652;50.400;30.628;2022-07-19T01:44:59;1.40;;;1.10;;
36213;SDS011;37652;50.400;30.628;2022-07-19T01:46:59;1.52;;;1.35;;
36213;SDS011;37652;50.400;30.628;2022-07-19T01:49:01;2.60;;;1.45;;
36213;SDS011;37652;50.400;30.628;2022-07-19T01:51:02;2.33;;;1.67;;
36213;SDS011;37652;50.400;30.628;2022-07-19T01:53:03;3.80;;;1.60;;
36213;SDS011;37652;50.400;30.628;2022-07-19T01:55:03;1.98;;;1.70;;
36213;SDS011;37652;50.400;30.628;2022-07-19T01:59:05;5.20;;;1.40;;
36213;SDS011;37652;50.400;30.628;2022-07-19T02:01:06;2.42;;;1.42;;
36213;SDS011;37652;50.400;30.628;2022-07-19T02:03:06;2.35;;;1.38;;
36213;SDS011;37652;50.400;30.628;2022-07-19T02:05:07;2.88;;;1.70;;
36213;SDS011;37652;50.400;30.628;2022-07-19T02:07:08;1.58;;;1.30;;
36213;SDS011;37652;50.400;30.628;2022-07-19T02:09:09;1.40;;;1.30;;
36213;SDS011;37652;50.400;30.628;2022-07-19T02:11:10;2.92;;;1.40;;
36213;SDS011;37652;50.400;30.628;2022-07-19T02:13:29;2.08;;;1.40;;
36213;SDS011;37652;50.400;30.628;2022-07-19T02:15:30;1.25;;;1.10;;
36213;SDS011;37652;50.400;30.628;2022-07-19T02:17:31;2.30;;;1.35;;
36213;SDS011;37652;50.400;30.628;2022-07-19T02:19:32;1.15;;;1.00;;
36213;SDS011;37652;50.400;30.628;2022-07-19T02:21:36;2.38;;;1.20;;
36213;SDS011;37652;50.400;30.628;2022-07-19T02:23:37;1.85;;;1.35;;
36213;SDS011;37652;50.400;30.628;2022-07-19T02:25:38;2.50;;;1.20;;
36213;SDS011;37652;50.400;30.628;2022-07-19T02:27:39;2.22;;;1.00;;
36213;SDS011;37652;50.400;30.628;2022-07-19T02:29:40;2.80;;;1.27;;
36213;SDS011;37652;50.400;30.628;2022-07-19T02:31:41;1.77;;;1.30;;
36213;SDS011;37652;50.400;30.628;2022-07-19T02:33:44;1.35;;;1.25;;
36213;SDS011;37652;50.400;30.628;2022-07-19T02:35:45;1.95;;;1.55;;
36213;SDS011;37652;50.400;30.628;2022-07-19T02:37:45;1.60;;;1.50;;
36213;SDS011;37652;50.400;30.628;2022-07-19T02:39:46;1.88;;;1.50;;
36213;SDS011;37652;50.400;30.628;2022-07-19T02:41:47;1.30;;;1.20;;
36213;SDS011;37652;50.400;30.628;2022-07-19T02:43:48;2.20;;;1.20;;
36213;SDS011;37652;50.400;30.628;2022-07-19T02:45:48;1.63;;;1.08;;
36213;SDS011;37652;50.400;30.628;2022-07-19T02:47:49;1.75;;;1.20;;
36213;SDS011;37652;50.400;30.628;2022-07-19T02:49:49;3.70;;;1.88;;
36213;SDS011;37652;50.400;30.628;2022-07-19T02:51:50;1.15;;;1.05;;
36213;SDS011;37652;50.400;30.628;2022-07-19T02:53:51;1.83;;;1.10;;
36213;SDS011;37652;50.400;30.628;2022-07-19T02:55:52;2.38;;;1.10;;
36213;SDS011;37652;50.400;30.628;2022-07-19T02:57:53;1.85;;;1.40;;
36213;SDS011;37652;50.400;30.628;2022-07-19T02:59:54;1.48;;;1.35;;
36213;SDS011;37652;50.400;30.628;2022-07-19T03:01:55;2.20;;;1.77;;
36213;SDS011;37652;50.400;30.628;2022-07-19T03:03:56;3.42;;;1.30;;
36213;SDS011;37652;50.400;30.628;2022-07-19T03:05:57;2.20;;;1.40;;
36213;SDS011;37652;50.400;30.628;2022-07-19T03:07:57;1.48;;;1.38;;
36213;SDS011;37652;50.400;30.628;2022-07-19T03:09:58;2.42;;;1.20;;
36213;SDS011;37652;50.400;30.628;2022-07-19T03:11:59;1.50;;;1.13;;
36213;SDS011;37652;50.400;30.628;2022-07-19T03:13:59;3.35;;;1.55;;
36213;SDS011;37652;50.400;30.628;2022-07-19T03:16:00;1.67;;;1.35;;
36213;SDS011;37652;50.400;30.628;2022-07-19T03:18:01;3.10;;;1.40;;
36213;SDS011;37652;50.400;30.628;2022-07-19T03:20:02;3.17;;;1.30;;
36213;SDS011;37652;50.400;30.628;2022-07-19T03:22:03;1.52;;;1.08;;
36213;SDS011;37652;50.400;30.628;2022-07-19T03:24:04;1.50;;;1.20;;
36213;SDS011;37652;50.400;30.628;2022-07-19T03:26:05;1.70;;;1.10;;
36213;SDS011;37652;50.400;30.628;2022-07-19T03:28:06;1.85;;;1.45;;
36213;SDS011;37652;50.400;30.628;2022-07-19T03:30:07;1.40;;;1.20;;
36213;SDS011;37652;50.400;30.628;2022-07-19T03:34:09;3.27;;;1.33;;
36213;SDS011;37652;50.400;30.628;2022-07-19T03:38:11;3.33;;;1.63;;
36213;SDS011;37652;50.400;30.628;2022-07-19T03:40:13;4.47;;;1.50;;
36213;SDS011;37652;50.400;30.628;2022-07-19T03:42:13;2.00;;;1.52;;
36213;SDS011;37652;50.400;30.628;2022-07-19T03:44:14;3.70;;;1.25;;
36213;SDS011;37652;50.400;30.628;2022-07-19T03:46:15;2.33;;;1.30;;
36213;SDS011;37652;50.400;30.628;2022-07-19T03:48:16;1.55;;;1.20;;
36213;SDS011;37652;50.400;30.628;2022-07-19T03:50:17;4.57;;;1.50;;
36213;SDS011;37652;50.400;30.628;2022-07-19T03:52:18;1.98;;;1.13;;
36213;SDS011;37652;50.400;30.628;2022-07-19T03:54:19;3.83;;;1.73;;
36213;SDS011;37652;50.400;30.628;2022-07-19T03:56:19;2.80;;;1.30;;
36213;SDS011;37652;50.400;30.628;2022-07-19T03:58:20;2.10;;;1.50;;
36213;SDS011;37652;50.400;30.628;2022-07-19T04:00:21;4.63;;;1.52;;
36213;SDS011;37652;50.400;30.628;2022-07-19T04:02:22;2.55;;;1.38;;
36213;SDS011;37652;50.400;30.628;2022-07-19T04:04:23;2.45;;;1.40;;
36213;SDS011;37652;50.400;30.628;2022-07-19T04:06:23;3.00;;;1.77;;
36213;SDS011;37652;50.400;30.628;2022-07-19T04:08:24;1.75;;;1.33;;
36213;SDS011;37652;50.400;30.628;2022-07-19T04:10:24;1.42;;;1.33;;
36213;SDS011;37652;50.400;30.628;2022-07-19T04:12:25;2.63;;;1.35;;
36213;SDS011;37652;50.400;30.628;2022-07-19T04:14:26;3.08;;;1.85;;
36213;SDS011;37652;50.400;30.628;2022-07-19T04:16:27;3.30;;;1.50;;
36213;SDS011;37652;50.400;30.628;2022-07-19T04:18:27;1.65;;;1.33;;
36213;SDS011;37652;50.400;30.628;2022-07-19T04:20:28;2.22;;;1.83;;
36213;SDS011;37652;50.400;30.628;2022-07-19T04:22:29;3.72;;;1.42;;
36213;SDS011;37652;50.400;30.628;2022-07-19T04:24:30;1.92;;;1.55;;
36213;SDS011;37652;50.400;30.628;2022-07-19T04:26:31;3.60;;;1.60;;
36213;SDS011;37652;50.400;30.628;2022-07-19T04:28:31;6.47;;;1.63;;
36213;SDS011;37652;50.400;30.628;2022-07-19T04:30:32;3.17;;;1.75;;
36213;SDS011;37652;50.400;30.628;2022-07-19T04:32:33;2.15;;;1.25;;
36213;SDS011;37652;50.400;30.628;2022-07-19T04:34:34;2.75;;;1.42;;
36213;SDS011;37652;50.400;30.628;2022-07-19T04:36:34;2.55;;;1.60;;
36213;SDS011;37652;50.400;30.628;2022-07-19T04:40:36;2.13;;;1.73;;
36213;SDS011;37652;50.400;30.628;2022-07-19T04:44:38;2.90;;;1.35;;
36213;SDS011;37652;50.400;30.628;2022-07-19T04:46:39;2.63;;;1.50;;
36213;SDS011;37652;50.400;30.628;2022-07-19T04:48:39;2.13;;;1.65;;
36213;SDS011;37652;50.400;30.628;2022-07-19T04:50:41;3.88;;;1.60;;
36213;SDS011;37652;50.400;30.628;2022-07-19T04:52:42;2.45;;;1.60;;
36213;SDS011;37652;50.400;30.628;2022-07-19T04:54:43;4.05;;;1.42;;
36213;SDS011;37652;50.400;30.628;2022-07-19T04:56:43;2.10;;;1.45;;
36213;SDS011;37652;50.400;30.628;2022-07-19T04:58:44;2.47;;;1.20;;
36213;SDS011;37652;50.400;30.628;2022-07-19T05:00:45;1.38;;;1.27;;
36213;SDS011;37652;50.400;30.628;2022-07-19T05:02:46;3.30;;;1.20;;
36213;SDS011;37652;50.400;30.628;2022-07-19T05:04:46;4.97;;;1.65;;
36213;SDS011;37652;50.400;30.628;2022-07-19T05:06:47;1.45;;;1.35;;
36213;SDS011;37652;50.400;30.628;2022-07-19T05:08:51;3.85;;;1.25;;
36213;SDS011;37652;50.400;30.628;2022-07-19T05:10:52;3.72;;;1.65;;
36213;SDS011;37652;50.400;30.628;2022-07-19T05:12:53;3.08;;;1.70;;
36213;SDS011;37652;50.400;30.628;2022-07-19T05:14:54;2.03;;;1.40;;
36213;SDS011;37652;50.400;30.628;2022-07-19T05:16:55;6.72;;;2.10;;
36213;SDS011;37652;50.400;30.628;2022-07-19T05:18:56;1.30;;;1.20;;
36213;SDS011;37652;50.400;30.628;2022-07-19T05:20:57;4.15;;;1.77;;
36213;SDS011;37652;50.400;30.628;2022-07-19T05:22:58;3.65;;;1.73;;
36213;SDS011;37652;50.400;30.628;2022-07-19T05:24:59;2.08;;;1.60;;
36213;SDS011;37652;50.400;30.628;2022-07-19T05:26:59;4.60;;;1.60;;
36213;SDS011;37652;50.400;30.628;2022-07-19T05:29:01;2.55;;;1.40;;
36213;SDS011;37652;50.400;30.628;2022-07-19T05:31:03;3.17;;;1.63;;
36213;SDS011;37652;50.400;30.628;2022-07-19T05:33:04;3.65;;;1.85;;
36213;SDS011;37652;50.400;30.628;2022-07-19T05:35:05;5.55;;;2.08;;
36213;SDS011;37652;50.400;30.628;2022-07-19T05:37:06;3.20;;;1.40;;
36213;SDS011;37652;50.400;30.628;2022-07-19T05:41:08;3.97;;;2.13;;
36213;SDS011;37652;50.400;30.628;2022-07-19T05:43:10;3.42;;;1.63;;
36213;SDS011;37652;50.400;30.628;2022-07-19T05:45:10;3.30;;;1.80;;
36213;SDS011;37652;50.400;30.628;2022-07-19T05:47:11;3.22;;;1.88;;
36213;SDS011;37652;50.400;30.628;2022-07-19T05:49:12;2.42;;;1.65;;
36213;SDS011;37652;50.400;30.628;2022-07-19T05:51:13;5.18;;;1.85;;
36213;SDS011;37652;50.400;30.628;2022-07-19T05:53:14;1.65;;;1.33;;
36213;SDS011;37652;50.400;30.628;2022-07-19T05:55:17;4.03;;;2.00;;
36213;SDS011;37652;50.400;30.628;2022-07-19T05:57:17;6.30;;;2.25;;
36213;SDS011;37652;50.400;30.628;2022-07-19T05:59:18;3.80;;;1.80;;
36213;SDS011;37652;50.400;30.628;2022-07-19T06:01:20;6.88;;;1.83;;
36213;SDS011;37652;50.400;30.628;2022-07-19T06:03:24;7.85;;;1.88;;
36213;SDS011;37652;50.400;30.628;2022-07-19T06:05:24;2.88;;;1.67;;
36213;SDS011;37652;50.400;30.628;2022-07-19T06:07:25;1.77;;;1.38;;
36213;SDS011;37652;50.400;30.628;2022-07-19T06:09:26;1.50;;;1.40;;
36213;SDS011;37652;50.400;30.628;2022-07-19T06:11:26;4.85;;;1.60;;
36213;SDS011;37652;50.400;30.628;2022-07-19T06:13:27;4.05;;;1.55;;
36213;SDS011;37652;50.400;30.628;2022-07-19T06:17:29;1.85;;;1.75;;
36213;SDS011;37652;50.400;30.628;2022-07-19T06:21:31;1.53;;;1.43;;
36213;SDS011;37652;50.400;30.628;2022-07-19T06:23:32;1.85;;;1.50;;
36213;SDS011;37652;50.400;30.628;2022-07-19T06:27:34;2.20;;;1.90;;
36213;SDS011;37652;50.400;30.628;2022-07-19T06:31:35;3.37;;;1.33;;
36213;SDS011;37652;50.400;30.628;2022-07-19T06:33:37;4.07;;;1.33;;
36213;SDS011;37652;50.400;30.628;2022-07-19T06:35:40;3.92;;;1.80;;
36213;SDS011;37652;50.400;30.628;2022-07-19T06:37:41;4.95;;;1.98;;
36213;SDS011;37652;50.400;30.628;2022-07-19T06:41:43;2.13;;;1.63;;
36213;SDS011;37652;50.400;30.628;2022-07-19T06:45:44;2.90;;;1.70;;
36213;SDS011;37652;50.400;30.628;2022-07-19T06:49:46;2.40;;;1.60;;
36213;SDS011;37652;50.400;30.628;2022-07-19T06:51:47;2.70;;;1.52;;
36213;SDS011;37652;50.400;30.628;2022-07-19T06:53:48;2.30;;;1.60;;
36213;SDS011;37652;50.400;30.628;2022-07-19T06:55:49;2.55;;;2.00;;
36213;SDS011;37652;50.400;30.628;2022-07-19T06:59:50;3.17;;;1.93;;
36213;SDS011;37652;50.400;30.628;2022-07-19T07:01:51;3.88;;;1.55;;
36213;SDS011;37652;50.400;30.628;2022-07-19T07:03:52;3.42;;;1.80;;
36213;SDS011;37652;50.400;30.628;2022-07-19T07:05:53;2.97;;;1.30;;
36213;SDS011;37652;50.400;30.628;2022-07-19T07:09:55;2.53;;;1.70;;
36213;SDS011;37652;50.400;30.628;2022-07-19T07:13:56;10.10;;;1.67;;
36213;SDS011;37652;50.400;30.628;2022-07-19T07:15:57;3.00;;;1.33;;
36213;SDS011;37652;50.400;30.628;2022-07-19T07:17:58;1.73;;;1.27;;
36213;SDS011;37652;50.400;30.628;2022-07-19T07:19:59;3.20;;;1.55;;
36213;SDS011;37652;50.400;30.628;2022-07-19T07:22:00;1.70;;;1.45;;
36213;SDS011;37652;50.400;30.628;2022-07-19T07:24:02;4.28;;;1.38;;
36213;SDS011;37652;50.400;30.628;2022-07-19T07:26:04;2.55;;;1.75;;
36213;SDS011;37652;50.400;30.628;2022-07-19T07:28:05;3.25;;;1.60;;
36213;SDS011;37652;50.400;30.628;2022-07-19T07:32:07;4.03;;;1.95;;
36213;SDS011;37652;50.400;30.628;2022-07-19T07:36:09;2.65;;;1.60;;
36213;SDS011;37652;50.400;30.628;2022-07-19T07:38:10;9.32;;;1.98;;
36213;SDS011;37652;50.400;30.628;2022-07-19T07:40:10;5.85;;;1.85;;
36213;SDS011;37652;50.400;30.628;2022-07-19T07:42:11;4.68;;;2.22;;
36213;SDS011;37652;50.400;30.628;2022-07-19T07:48:14;4.68;;;1.85;;
36213;SDS011;37652;50.400;30.628;2022-07-19T07:50:15;5.18;;;1.92;;
36213;SDS011;37652;50.400;30.628;2022-07-19T07:52:16;5.65;;;1.80;;
36213;SDS011;37652;50.400;30.628;2022-07-19T07:56:17;5.05;;;2.47;;
36213;SDS011;37652;50.400;30.628;2022-07-19T07:58:18;5.07;;;1.60;;
36213;SDS011;37652;50.400;30.628;2022-07-19T08:00:19;5.13;;;2.15;;
36213;SDS011;37652;50.400;30.628;2022-07-19T08:02:19;6.68;;;2.00;;
36213;SDS011;37652;50.400;30.628;2022-07-19T08:06:21;4.55;;;2.15;;
36213;SDS011;37652;50.400;30.628;2022-07-19T08:08:22;3.60;;;2.17;;
36213;SDS011;37652;50.400;30.628;2022-07-19T08:10:28;5.00;;;2.67;;
36213;SDS011;37652;50.400;30.628;2022-07-19T08:12:32;4.53;;;2.10;;
36213;SDS011;37652;50.400;30.628;2022-07-19T08:14:33;4.50;;;2.10;;
36213;SDS011;37652;50.400;30.628;2022-07-19T08:18:34;5.53;;;2.53;;
36213;SDS011;37652;50.400;30.628;2022-07-19T08:20:35;5.13;;;2.35;;
36213;SDS011;37652;50.400;30.628;2022-07-19T08:24:36;4.37;;;2.30;;
36213;SDS011;37652;50.400;30.628;2022-07-19T08:26:37;4.72;;;2.47;;
36213;SDS011;37652;50.400;30.628;2022-07-19T08:28:38;3.00;;;1.85;;
36213;SDS011;37652;50.400;30.628;2022-07-19T08:30:39;3.13;;;2.35;;
36213;SDS011;37652;50.400;30.628;2022-07-19T08:32:40;3.70;;;2.03;;
36213;SDS011;37652;50.400;30.628;2022-07-19T08:36:41;3.17;;;2.30;;
36213;SDS011;37652;50.400;30.628;2022-07-19T08:38:42;2.58;;;2.08;;
36213;SDS011;37652;50.400;30.628;2022-07-19T08:40:43;3.30;;;2.05;;
36213;SDS011;37652;50.400;30.628;2022-07-19T08:42:46;6.65;;;2.20;;
36213;SDS011;37652;50.400;30.628;2022-07-19T08:44:50;3.13;;;1.90;;
36213;SDS011;37652;50.400;30.628;2022-07-19T08:46:52;3.20;;;2.70;;
36213;SDS011;37652;50.400;30.628;2022-07-19T08:48:54;2.92;;;2.42;;
36213;SDS011;37652;50.400;30.628;2022-07-19T08:50:55;4.75;;;2.55;;
36213;SDS011;37652;50.400;30.628;2022-07-19T08:54:58;6.25;;;2.20;;
36213;SDS011;37652;50.400;30.628;2022-07-19T08:56:59;3.80;;;2.13;;
36213;SDS011;37652;50.400;30.628;2022-07-19T08:59:18;3.28;;;2.40;;
36213;SDS011;37652;50.400;30.628;2022-07-19T09:01:22;4.65;;;2.10;;
36213;SDS011;37652;50.400;30.628;2022-07-19T09:03:23;4.35;;;2.00;;
36213;SDS011;37652;50.400;30.628;2022-07-19T09:07:25;4.80;;;2.20;;
36213;SDS011;37652;50.400;30.628;2022-07-19T09:09:27;6.00;;;2.25;;
36213;SDS011;37652;50.400;30.628;2022-07-19T09:11:36;6.40;;;2.13;;
36213;SDS011;37652;50.400;30.628;2022-07-19T09:13:38;2.80;;;2.38;;
36213;SDS011;37652;50.400;30.628;2022-07-19T09:17:44;4.28;;;2.10;;
36213;SDS011;37652;50.400;30.628;2022-07-19T09:24:01;4.28;;;2.33;;
36213;SDS011;37652;50.400;30.628;2022-07-19T09:26:04;7.45;;;2.10;;
36213;SDS011;37652;50.400;30.628;2022-07-19T09:28:05;1.95;;;1.83;;
36213;SDS011;37652;50.400;30.628;2022-07-19T09:30:07;6.45;;;3.58;;
36213;SDS011;37652;50.400;30.628;2022-07-19T09:34:08;4.75;;;2.30;;
36213;SDS011;37652;50.400;30.628;2022-07-19T09:40:21;3.10;;;1.80;;
36213;SDS011;37652;50.400;30.628;2022-07-19T09:42:22;8.15;;;1.95;;
36213;SDS011;37652;50.400;30.628;2022-07-19T09:44:24;2.67;;;2.00;;
36213;SDS011;37652;50.400;30.628;2022-07-19T09:46:32;5.57;;;2.00;;
36213;SDS011;37652;50.400;30.628;2022-07-19T09:48:42;6.60;;;2.60;;
36213;SDS011;37652;50.400;30.628;2022-07-19T09:50:44;2.13;;;1.63;;
36213;SDS011;37652;50.400;30.628;2022-07-19T09:52:48;3.75;;;2.20;;
36213;SDS011;37652;50.400;30.628;2022-07-19T09:54:50;3.58;;;2.50;;
36213;SDS011;37652;50.400;30.628;2022-07-19T09:56:52;3.63;;;2.17;;
36213;SDS011;37652;50.400;30.628;2022-07-19T09:58:54;3.70;;;2.33;;
36213;SDS011;37652;50.400;30.628;2022-07-19T10:00:56;3.85;;;2.38;;
36213;SDS011;37652;50.400;30.628;2022-07-19T10:02:58;3.05;;;2.10;;
36213;SDS011;37652;50.400;30.628;2022-07-19T10:04:59;3.20;;;2.33;;
36213;SDS011;37652;50.400;30.628;2022-07-19T10:07:05;4.35;;;2.47;;
36213;SDS011;37652;50.400;30.628;2022-07-19T10:11:08;4.32;;;1.95;;
36213;SDS011;37652;50.400;30.628;2022-07-19T10:15:10;3.42;;;1.88;;
36213;SDS011;37652;50.400;30.628;2022-07-19T10:19:47;3.40;;;1.75;;
36213;SDS011;37652;50.400;30.628;2022-07-19T10:21:49;2.67;;;2.13;;
36213;SDS011;37652;50.400;30.628;2022-07-19T10:23:51;2.45;;;1.38;;
36213;SDS011;37652;50.400;30.628;2022-07-19T10:25:51;1.58;;;1.48;;
36213;SDS011;37652;50.400;30.628;2022-07-19T10:27:53;3.15;;;1.63;;
36213;SDS011;37652;50.400;30.628;2022-07-19T10:32:02;4.28;;;1.85;;
36213;SDS011;37652;50.400;30.628;2022-07-19T10:34:06;3.55;;;1.40;;
36213;SDS011;37652;50.400;30.628;2022-07-19T10:38:32;2.50;;;1.55;;
36213;SDS011;37652;50.400;30.628;2022-07-19T10:43:05;2.00;;;1.40;;
36213;SDS011;37652;50.400;30.628;2022-07-19T10:45:15;1.90;;;1.25;;
36213;SDS011;37652;50.400;30.628;2022-07-19T10:47:16;2.22;;;1.48;;
36213;SDS011;37652;50.400;30.628;2022-07-19T10:49:40;1.50;;;1.30;;
36213;SDS011;37652;50.400;30.628;2022-07-19T10:51:45;3.55;;;1.58;;
36213;SDS011;37652;50.400;30.628;2022-07-19T10:55:50;1.33;;;1.20;;
36213;SDS011;37652;50.400;30.628;2022-07-19T10:58:20;2.45;;;2.25;;
36213;SDS011;37652;50.400;30.628;2022-07-19T11:00:29;3.38;;;2.00;;
36213;SDS011;37652;50.400;30.628;2022-07-19T11:02:31;2.38;;;1.50;;
36213;SDS011;37652;50.400;30.628;2022-07-19T11:04:32;1.58;;;1.25;;
36213;SDS011;37652;50.400;30.628;2022-07-19T11:06:34;1.58;;;1.10;;
36213;SDS011;37652;50.400;30.628;2022-07-19T11:10:36;1.35;;;1.10;;
36213;SDS011;37652;50.400;30.628;2022-07-19T11:12:37;1.35;;;0.88;;
36213;SDS011;37652;50.400;30.628;2022-07-19T11:14:42;2.13;;;0.90;;
36213;SDS011;37652;50.400;30.628;2022-07-19T11:16:44;1.30;;;0.98;;
36213;SDS011;37652;50.400;30.628;2022-07-19T11:18:45;2.60;;;1.00;;
36213;SDS011;37652;50.400;30.628;2022-07-19T11:20:47;1.75;;;1.25;;
36213;SDS011;37652;50.400;30.628;2022-07-19T11:22:47;1.80;;;1.23;;
36213;SDS011;37652;50.400;30.628;2022-07-19T11:24:49;1.70;;;1.30;;
36213;SDS011;37652;50.400;30.628;2022-07-19T11:26:50;1.45;;;0.93;;
36213;SDS011;37652;50.400;30.628;2022-07-19T11:28:50;1.80;;;1.35;;
36213;SDS011;37652;50.400;30.628;2022-07-19T11:30:51;3.88;;;1.50;;
36213;SDS011;37652;50.400;30.628;2022-07-19T11:32:53;1.60;;;1.17;;
36213;SDS011;37652;50.400;30.628;2022-07-19T11:35:03;2.88;;;1.15;;
36213;SDS011;37652;50.400;30.628;2022-07-19T11:37:07;4.05;;;1.30;;
36213;SDS011;37652;50.400;30.628;2022-07-19T11:39:08;2.72;;;1.38;;
36213;SDS011;37652;50.400;30.628;2022-07-19T11:41:13;4.93;;;1.17;;
36213;SDS011;37652;50.400;30.628;2022-07-19T11:43:14;2.90;;;1.45;;
36213;SDS011;37652;50.400;30.628;2022-07-19T11:47:17;4.53;;;1.63;;
36213;SDS011;37652;50.400;30.628;2022-07-19T11:49:17;2.67;;;1.67;;
36213;SDS011;37652;50.400;30.628;2022-07-19T11:51:18;1.83;;;1.48;;
36213;SDS011;37652;50.400;30.628;2022-07-19T11:53:19;2.20;;;1.95;;
36213;SDS011;37652;50.400;30.628;2022-07-19T11:55:21;2.55;;;2.00;;
36213;SDS011;37652;50.400;30.628;2022-07-19T11:57:24;3.78;;;1.65;;
36213;SDS011;37652;50.400;30.628;2022-07-19T11:59:26;2.58;;;1.45;;
36213;SDS011;37652;50.400;30.628;2022-07-19T12:03:28;5.55;;;2.30;;
36213;SDS011;37652;50.400;30.628;2022-07-19T12:07:31;2.30;;;1.98;;
36213;SDS011;37652;50.400;30.628;2022-07-19T12:09:32;2.28;;;2.08;;
36213;SDS011;37652;50.400;30.628;2022-07-19T12:11:38;7.28;;;1.88;;
36213;SDS011;37652;50.400;30.628;2022-07-19T12:13:40;5.03;;;1.67;;
36213;SDS011;37652;50.400;30.628;2022-07-19T12:17:56;2.53;;;1.38;;
36213;SDS011;37652;50.400;30.628;2022-07-19T12:20:09;3.15;;;1.48;;
36213;SDS011;37652;50.400;30.628;2022-07-19T12:24:42;2.33;;;1.80;;
36213;SDS011;37652;50.400;30.628;2022-07-19T12:28:53;1.85;;;1.67;;
36213;SDS011;37652;50.400;30.628;2022-07-19T12:31:03;3.08;;;1.85;;
36213;SDS011;37652;50.400;30.628;2022-07-19T12:33:06;3.10;;;1.70;;
36213;SDS011;37652;50.400;30.628;2022-07-19T12:35:13;2.85;;;1.83;;
36213;SDS011;37652;50.400;30.628;2022-07-19T12:39:31;3.05;;;1.77;;
36213;SDS011;37652;50.400;30.628;2022-07-19T12:41:34;1.80;;;1.58;;
36213;SDS011;37652;50.400;30.628;2022-07-19T12:45:36;5.73;;;2.13;;
36213;SDS011;37652;50.400;30.628;2022-07-19T12:47:44;1.67;;;1.58;;
36213;SDS011;37652;50.400;30.628;2022-07-19T12:49:47;3.85;;;1.95;;
36213;SDS011;37652;50.400;30.628;2022-07-19T12:51:56;2.17;;;1.95;;
36213;SDS011;37652;50.400;30.628;2022-07-19T12:55:57;2.33;;;1.70;;
36213;SDS011;37652;50.400;30.628;2022-07-19T12:59:59;3.50;;;1.77;;
36213;SDS011;37652;50.400;30.628;2022-07-19T13:04:00;3.77;;;2.03;;
36213;SDS011;37652;50.400;30.628;2022-07-19T13:06:02;3.97;;;2.28;;
36213;SDS011;37652;50.400;30.628;2022-07-19T13:10:03;2.08;;;1.88;;
36213;SDS011;37652;50.400;30.628;2022-07-19T13:12:06;3.60;;;2.20;;
36213;SDS011;37652;50.400;30.628;2022-07-19T13:14:07;3.30;;;2.15;;
36213;SDS011;37652;50.400;30.628;2022-07-19T13:16:11;3.50;;;2.20;;
36213;SDS011;37652;50.400;30.628;2022-07-19T13:18:11;4.47;;;2.72;;
36213;SDS011;37652;50.400;30.628;2022-07-19T13:20:13;2.40;;;2.20;;
36213;SDS011;37652;50.400;30.628;2022-07-19T13:22:14;2.40;;;2.10;;
36213;SDS011;37652;50.400;30.628;2022-07-19T13:24:15;3.75;;;2.47;;
36213;SDS011;37652;50.400;30.628;2022-07-19T13:26:15;3.53;;;2.33;;
36213;SDS011;37652;50.400;30.628;2022-07-19T13:28:16;3.33;;;2.33;;
36213;SDS011;37652;50.400;30.628;2022-07-19T13:30:17;3.92;;;2.25;;
36213;SDS011;37652;50.400;30.628;2022-07-19T13:34:19;4.88;;;2.53;;
36213;SDS011;37652;50.400;30.628;2022-07-19T13:36:20;4.90;;;2.53;;
36213;SDS011;37652;50.400;30.628;2022-07-19T13:38:20;5.65;;;2.80;;
36213;SDS011;37652;50.400;30.628;2022-07-19T13:42:22;3.25;;;2.30;;
36213;SDS011;37652;50.400;30.628;2022-07-19T13:44:23;5.22;;;2.33;;
36213;SDS011;37652;50.400;30.628;2022-07-19T13:48:25;3.08;;;2.30;;
36213;SDS011;37652;50.400;30.628;2022-07-19T13:50:27;3.90;;;2.40;;
36213;SDS011;37652;50.400;30.628;2022-07-19T13:52:28;2.88;;;2.17;;
36213;SDS011;37652;50.400;30.628;2022-07-19T13:56:30;2.60;;;2.17;;
36213;SDS011;37652;50.400;30.628;2022-07-19T14:00:32;3.05;;;2.03;;
36213;SDS011;37652;50.400;30.628;2022-07-19T14:04:33;2.72;;;2.10;;
36213;SDS011;37652;50.400;30.628;2022-07-19T14:06:34;5.40;;;2.53;;
36213;SDS011;37652;50.400;30.628;2022-07-19T14:10:36;4.20;;;2.75;;
36213;SDS011;37652;50.400;30.628;2022-07-19T14:12:37;4.57;;;2.35;;